sensor_id;sensor_type;location;lat;lon;timestamp;P1;durP1;ratioP1;P2;durP2;ratioP2
32780;SDS011;19136;47.032;15.502;2022-07-21T00:01:06;6.68;;;2.47;;
32780;SDS011;19136;47.032;15.502;2022-07-21T00:03:31;8.57;;;2.65;;
32780;SDS011;19136;47.032;15.502;2022-07-21T00:05:57;6.07;;;2.58;;
32780;SDS011;19136;47.032;15.502;2022-07-21T00:08:22;5.45;;;2.30;;
32780;SDS011;19136;47.032;15.502;2022-07-21T00:10:48;7.78;;;2.45;;
32780;SDS011;19136;47.032;15.502;2022-07-21T00:13:13;6.97;;;3.17;;
32780;SDS011;19136;47.032;15.502;2022-07-21T00:15:39;7.82;;;2.67;;
32780;SDS011;19136;47.032;15.502;2022-07-21T00:18:04;3.65;;;2.42;;
32780;SDS011;19136;47.032;15.502;2022-07-21T00:20:30;7.15;;;2.58;;
32780;SDS011;19136;47.032;15.502;2022-07-21T00:22:56;9.27;;;2.83;;
32780;SDS011;19136;47.032;15.502;2022-07-21T00:25:22;9.40;;;2.50;;
32780;SDS011;19136;47.032;15.502;2022-07-21T00:27:48;4.20;;;2.13;;
32780;SDS011;19136;47.032;15.502;2022-07-21T00:30:13;7.88;;;2.95;;
32780;SDS011;19136;47.032;15.502;2022-07-21T00:32:40;7.57;;;2.58;;
32780;SDS011;19136;47.032;15.502;2022-07-21T00:35:06;7.63;;;2.80;;
32780;SDS011;19136;47.032;15.502;2022-07-21T00:37:33;9.05;;;2.80;;
32780;SDS011;19136;47.032;15.502;2022-07-21T00:39:59;4.13;;;2.78;;
32780;SDS011;19136;47.032;15.502;2022-07-21T00:42:28;5.65;;;2.88;;
32780;SDS011;19136;47.032;15.502;2022-07-21T00:44:55;8.48;;;2.85;;
32780;SDS011;19136;47.032;15.502;2022-07-21T00:47:25;8.60;;;3.25;;
32780;SDS011;19136;47.032;15.502;2022-07-21T00:49:52;8.93;;;2.50;;
32780;SDS011;19136;47.032;15.502;2022-07-21T00:52:18;6.60;;;3.13;;
32780;SDS011;19136;47.032;15.502;2022-07-21T00:54:44;6.38;;;2.95;;
32780;SDS011;19136;47.032;15.502;2022-07-21T00:57:10;4.68;;;2.90;;
32780;SDS011;19136;47.032;15.502;2022-07-21T00:59:36;13.13;;;3.20;;
32780;SDS011;19136;47.032;15.502;2022-07-21T01:02:02;7.28;;;2.95;;
32780;SDS011;19136;47.032;15.502;2022-07-21T01:04:28;5.95;;;3.03;;
32780;SDS011;19136;47.032;15.502;2022-07-21T01:06:53;6.05;;;2.85;;
32780;SDS011;19136;47.032;15.502;2022-07-21T01:09:20;5.50;;;2.90;;
32780;SDS011;19136;47.032;15.502;2022-07-21T01:11:46;9.57;;;3.25;;
32780;SDS011;19136;47.032;15.502;2022-07-21T01:14:12;7.72;;;2.83;;
32780;SDS011;19136;47.032;15.502;2022-07-21T01:16:37;5.93;;;2.83;;
32780;SDS011;19136;47.032;15.502;2022-07-21T01:19:04;5.95;;;3.35;;
32780;SDS011;19136;47.032;15.502;2022-07-21T01:21:35;3.97;;;2.53;;
32780;SDS011;19136;47.032;15.502;2022-07-21T01:24:02;9.52;;;3.35;;
32780;SDS011;19136;47.032;15.502;2022-07-21T01:26:28;8.10;;;3.50;;
32780;SDS011;19136;47.032;15.502;2022-07-21T01:28:55;7.72;;;4.05;;
32780;SDS011;19136;47.032;15.502;2022-07-21T01:31:22;7.88;;;3.30;;
32780;SDS011;19136;47.032;15.502;2022-07-21T01:33:48;3.90;;;2.70;;
32780;SDS011;19136;47.032;15.502;2022-07-21T01:36:13;9.98;;;2.97;;
32780;SDS011;19136;47.032;15.502;2022-07-21T01:38:39;6.00;;;3.03;;
32780;SDS011;19136;47.032;15.502;2022-07-21T01:41:23;5.03;;;2.92;;
32780;SDS011;19136;47.032;15.502;2022-07-21T01:43:59;6.32;;;2.97;;
32780;SDS011;19136;47.032;15.502;2022-07-21T01:46:29;8.15;;;3.17;;
32780;SDS011;19136;47.032;15.502;2022-07-21T01:48:56;11.07;;;3.03;;
32780;SDS011;19136;47.032;15.502;2022-07-21T01:51:22;7.32;;;3.45;;
32780;SDS011;19136;47.032;15.502;2022-07-21T01:53:48;6.10;;;3.08;;
32780;SDS011;19136;47.032;15.502;2022-07-21T01:56:13;4.50;;;2.90;;
32780;SDS011;19136;47.032;15.502;2022-07-21T01:58:39;6.70;;;3.08;;
32780;SDS011;19136;47.032;15.502;2022-07-21T02:01:06;6.57;;;2.90;;
32780;SDS011;19136;47.032;15.502;2022-07-21T02:03:31;7.03;;;3.50;;
32780;SDS011;19136;47.032;15.502;2022-07-21T02:06:03;6.55;;;3.30;;
32780;SDS011;19136;47.032;15.502;2022-07-21T02:08:30;8.90;;;3.28;;
32780;SDS011;19136;47.032;15.502;2022-07-21T02:10:56;6.10;;;3.25;;
32780;SDS011;19136;47.032;15.502;2022-07-21T02:13:22;7.30;;;3.10;;
32780;SDS011;19136;47.032;15.502;2022-07-21T02:15:48;8.80;;;3.42;;
32780;SDS011;19136;47.032;15.502;2022-07-21T02:18:13;5.90;;;3.13;;
32780;SDS011;19136;47.032;15.502;2022-07-21T02:20:39;9.38;;;3.38;;
32780;SDS011;19136;47.032;15.502;2022-07-21T02:23:04;7.75;;;3.30;;
32780;SDS011;19136;47.032;15.502;2022-07-21T02:25:30;11.40;;;3.72;;
32780;SDS011;19136;47.032;15.502;2022-07-21T02:27:55;8.52;;;3.30;;
32780;SDS011;19136;47.032;15.502;2022-07-21T02:30:21;4.75;;;3.15;;
32780;SDS011;19136;47.032;15.502;2022-07-21T02:32:46;4.10;;;3.13;;
32780;SDS011;19136;47.032;15.502;2022-07-21T02:35:12;6.88;;;3.78;;
32780;SDS011;19136;47.032;15.502;2022-07-21T02:37:38;6.68;;;3.30;;
32780;SDS011;19136;47.032;15.502;2022-07-21T02:40:04;5.38;;;2.97;;
32780;SDS011;19136;47.032;15.502;2022-07-21T02:42:30;10.05;;;3.30;;
32780;SDS011;19136;47.032;15.502;2022-07-21T02:44:56;7.95;;;2.95;;
32780;SDS011;19136;47.032;15.502;2022-07-21T02:47:21;6.47;;;3.30;;
32780;SDS011;19136;47.032;15.502;2022-07-21T02:49:47;5.68;;;3.20;;
32780;SDS011;19136;47.032;15.502;2022-07-21T02:52:13;5.30;;;2.85;;
32780;SDS011;19136;47.032;15.502;2022-07-21T02:54:39;11.35;;;3.75;;
32780;SDS011;19136;47.032;15.502;2022-07-21T02:57:05;6.57;;;3.50;;
32780;SDS011;19136;47.032;15.502;2022-07-21T02:59:30;8.07;;;3.38;;
32780;SDS011;19136;47.032;15.502;2022-07-21T03:01:56;10.50;;;3.33;;
32780;SDS011;19136;47.032;15.502;2022-07-21T03:04:21;11.10;;;3.80;;
32780;SDS011;19136;47.032;15.502;2022-07-21T03:06:47;4.80;;;3.17;;
32780;SDS011;19136;47.032;15.502;2022-07-21T03:09:12;6.40;;;3.13;;
32780;SDS011;19136;47.032;15.502;2022-07-21T03:11:38;8.68;;;3.30;;
32780;SDS011;19136;47.032;15.502;2022-07-21T03:14:03;5.93;;;2.95;;
32780;SDS011;19136;47.032;15.502;2022-07-21T03:16:29;5.05;;;3.40;;
32780;SDS011;19136;47.032;15.502;2022-07-21T03:18:54;11.43;;;3.88;;
32780;SDS011;19136;47.032;15.502;2022-07-21T03:21:20;6.15;;;3.25;;
32780;SDS011;19136;47.032;15.502;2022-07-21T03:23:45;6.32;;;3.45;;
32780;SDS011;19136;47.032;15.502;2022-07-21T03:26:12;5.50;;;3.78;;
32780;SDS011;19136;47.032;15.502;2022-07-21T03:28:38;10.20;;;3.38;;
32780;SDS011;19136;47.032;15.502;2022-07-21T03:31:04;9.50;;;3.65;;
32780;SDS011;19136;47.032;15.502;2022-07-21T03:33:30;8.90;;;3.90;;
32780;SDS011;19136;47.032;15.502;2022-07-21T03:35:56;5.20;;;3.25;;
32780;SDS011;19136;47.032;15.502;2022-07-21T03:38:23;7.85;;;3.35;;
32780;SDS011;19136;47.032;15.502;2022-07-21T03:40:52;6.05;;;3.63;;
32780;SDS011;19136;47.032;15.502;2022-07-21T03:43:18;11.95;;;3.28;;
32780;SDS011;19136;47.032;15.502;2022-07-21T03:45:44;8.48;;;3.42;;
32780;SDS011;19136;47.032;15.502;2022-07-21T03:48:10;5.32;;;3.22;;
32780;SDS011;19136;47.032;15.502;2022-07-21T03:50:37;9.02;;;3.75;;
32780;SDS011;19136;47.032;15.502;2022-07-21T03:53:04;8.90;;;3.50;;
32780;SDS011;19136;47.032;15.502;2022-07-21T03:55:30;10.63;;;3.50;;
32780;SDS011;19136;47.032;15.502;2022-07-21T03:57:57;11.73;;;3.50;;
32780;SDS011;19136;47.032;15.502;2022-07-21T04:02:54;13.98;;;3.80;;
32780;SDS011;19136;47.032;15.502;2022-07-21T04:05:20;7.68;;;3.67;;
32780;SDS011;19136;47.032;15.502;2022-07-21T04:07:47;18.80;;;3.60;;
32780;SDS011;19136;47.032;15.502;2022-07-21T04:10:14;10.95;;;3.35;;
32780;SDS011;19136;47.032;15.502;2022-07-21T04:12:42;9.18;;;3.42;;
32780;SDS011;19136;47.032;15.502;2022-07-21T04:15:09;16.08;;;3.75;;
32780;SDS011;19136;47.032;15.502;2022-07-21T04:17:35;14.10;;;4.03;;
32780;SDS011;19136;47.032;15.502;2022-07-21T04:20:00;14.48;;;3.90;;
32780;SDS011;19136;47.032;15.502;2022-07-21T04:22:27;12.07;;;3.53;;
32780;SDS011;19136;47.032;15.502;2022-07-21T04:24:52;13.68;;;3.55;;
32780;SDS011;19136;47.032;15.502;2022-07-21T04:27:18;10.85;;;3.55;;
32780;SDS011;19136;47.032;15.502;2022-07-21T04:29:44;9.60;;;3.50;;
32780;SDS011;19136;47.032;15.502;2022-07-21T04:32:09;8.23;;;3.40;;
32780;SDS011;19136;47.032;15.502;2022-07-21T04:34:35;6.97;;;3.50;;
32780;SDS011;19136;47.032;15.502;2022-07-21T04:37:00;8.55;;;3.67;;
32780;SDS011;19136;47.032;15.502;2022-07-21T04:39:26;9.75;;;3.97;;
32780;SDS011;19136;47.032;15.502;2022-07-21T04:41:52;8.77;;;3.55;;
32780;SDS011;19136;47.032;15.502;2022-07-21T04:44:18;13.60;;;4.10;;
32780;SDS011;19136;47.032;15.502;2022-07-21T04:46:44;11.05;;;3.70;;
32780;SDS011;19136;47.032;15.502;2022-07-21T04:49:10;6.80;;;3.30;;
32780;SDS011;19136;47.032;15.502;2022-07-21T04:51:36;7.07;;;3.22;;
32780;SDS011;19136;47.032;15.502;2022-07-21T04:54:01;10.85;;;3.55;;
32780;SDS011;19136;47.032;15.502;2022-07-21T04:56:27;6.70;;;3.40;;
32780;SDS011;19136;47.032;15.502;2022-07-21T04:58:52;10.00;;;3.15;;
32780;SDS011;19136;47.032;15.502;2022-07-21T05:01:18;11.30;;;3.53;;
32780;SDS011;19136;47.032;15.502;2022-07-21T05:03:44;9.75;;;3.03;;
32780;SDS011;19136;47.032;15.502;2022-07-21T05:06:10;8.27;;;3.30;;
32780;SDS011;19136;47.032;15.502;2022-07-21T05:08:35;8.13;;;3.38;;
32780;SDS011;19136;47.032;15.502;2022-07-21T05:11:01;10.48;;;3.72;;
32780;SDS011;19136;47.032;15.502;2022-07-21T05:13:27;5.60;;;2.90;;
32780;SDS011;19136;47.032;15.502;2022-07-21T05:15:52;10.60;;;3.75;;
32780;SDS011;19136;47.032;15.502;2022-07-21T05:18:18;12.57;;;3.75;;
32780;SDS011;19136;47.032;15.502;2022-07-21T05:20:43;12.80;;;3.05;;
32780;SDS011;19136;47.032;15.502;2022-07-21T05:23:09;7.47;;;2.90;;
32780;SDS011;19136;47.032;15.502;2022-07-21T05:25:34;6.80;;;3.50;;
32780;SDS011;19136;47.032;15.502;2022-07-21T05:28:01;7.20;;;3.08;;
32780;SDS011;19136;47.032;15.502;2022-07-21T05:30:26;6.65;;;3.38;;
32780;SDS011;19136;47.032;15.502;2022-07-21T05:32:52;9.50;;;3.15;;
32780;SDS011;19136;47.032;15.502;2022-07-21T05:35:17;9.40;;;2.90;;
32780;SDS011;19136;47.032;15.502;2022-07-21T05:37:43;9.23;;;3.42;;
32780;SDS011;19136;47.032;15.502;2022-07-21T05:40:10;6.75;;;3.08;;
32780;SDS011;19136;47.032;15.502;2022-07-21T05:42:36;6.20;;;3.10;;
32780;SDS011;19136;47.032;15.502;2022-07-21T05:45:03;6.20;;;3.10;;
32780;SDS011;19136;47.032;15.502;2022-07-21T05:47:28;7.68;;;3.10;;
32780;SDS011;19136;47.032;15.502;2022-07-21T05:49:55;8.82;;;3.67;;
32780;SDS011;19136;47.032;15.502;2022-07-21T05:52:20;10.18;;;3.58;;
32780;SDS011;19136;47.032;15.502;2022-07-21T05:54:46;9.48;;;3.67;;
32780;SDS011;19136;47.032;15.502;2022-07-21T05:57:11;10.10;;;3.55;;
32780;SDS011;19136;47.032;15.502;2022-07-21T05:59:37;7.90;;;3.22;;
32780;SDS011;19136;47.032;15.502;2022-07-21T06:02:02;11.65;;;3.15;;
32780;SDS011;19136;47.032;15.502;2022-07-21T06:04:28;9.52;;;3.50;;
32780;SDS011;19136;47.032;15.502;2022-07-21T06:06:53;10.75;;;3.40;;
32780;SDS011;19136;47.032;15.502;2022-07-21T06:09:19;8.00;;;3.10;;
32780;SDS011;19136;47.032;15.502;2022-07-21T06:11:48;8.52;;;3.30;;
32780;SDS011;19136;47.032;15.502;2022-07-21T06:14:13;9.73;;;3.53;;
32780;SDS011;19136;47.032;15.502;2022-07-21T06:16:39;7.80;;;3.63;;
32780;SDS011;19136;47.032;15.502;2022-07-21T06:19:05;12.48;;;3.35;;
32780;SDS011;19136;47.032;15.502;2022-07-21T06:21:32;11.63;;;3.55;;
32780;SDS011;19136;47.032;15.502;2022-07-21T06:23:58;10.98;;;3.80;;
32780;SDS011;19136;47.032;15.502;2022-07-21T06:26:24;9.02;;;3.60;;
32780;SDS011;19136;47.032;15.502;2022-07-21T06:28:49;7.05;;;3.58;;
32780;SDS011;19136;47.032;15.502;2022-07-21T06:31:15;9.07;;;3.38;;
32780;SDS011;19136;47.032;15.502;2022-07-21T06:33:40;10.38;;;4.07;;
32780;SDS011;19136;47.032;15.502;2022-07-21T06:36:06;12.40;;;3.88;;
32780;SDS011;19136;47.032;15.502;2022-07-21T06:38:33;6.97;;;3.65;;
32780;SDS011;19136;47.032;15.502;2022-07-21T06:40:59;10.73;;;3.15;;
32780;SDS011;19136;47.032;15.502;2022-07-21T06:43:24;11.23;;;3.50;;
32780;SDS011;19136;47.032;15.502;2022-07-21T06:45:50;12.25;;;3.42;;
32780;SDS011;19136;47.032;15.502;2022-07-21T06:48:16;15.35;;;4.53;;
32780;SDS011;19136;47.032;15.502;2022-07-21T06:50:41;8.13;;;3.63;;
32780;SDS011;19136;47.032;15.502;2022-07-21T06:53:07;7.47;;;3.45;;
32780;SDS011;19136;47.032;15.502;2022-07-21T06:55:33;11.82;;;3.53;;
32780;SDS011;19136;47.032;15.502;2022-07-21T06:58:08;10.70;;;3.78;;
32780;SDS011;19136;47.032;15.502;2022-07-21T07:00:44;8.38;;;3.50;;
32780;SDS011;19136;47.032;15.502;2022-07-21T07:03:10;6.10;;;3.63;;
32780;SDS011;19136;47.032;15.502;2022-07-21T07:05:36;13.73;;;3.38;;
32780;SDS011;19136;47.032;15.502;2022-07-21T07:08:02;5.55;;;3.30;;
32780;SDS011;19136;47.032;15.502;2022-07-21T07:10:28;8.85;;;3.78;;
32780;SDS011;19136;47.032;15.502;2022-07-21T07:12:54;11.07;;;3.33;;
32780;SDS011;19136;47.032;15.502;2022-07-21T07:15:21;10.35;;;3.10;;
32780;SDS011;19136;47.032;15.502;2022-07-21T07:17:47;9.18;;;3.50;;
32780;SDS011;19136;47.032;15.502;2022-07-21T07:20:12;8.75;;;3.35;;
32780;SDS011;19136;47.032;15.502;2022-07-21T07:22:38;8.45;;;3.10;;
32780;SDS011;19136;47.032;15.502;2022-07-21T07:25:04;8.02;;;3.25;;
32780;SDS011;19136;47.032;15.502;2022-07-21T07:27:30;9.32;;;3.17;;
32780;SDS011;19136;47.032;15.502;2022-07-21T07:29:55;8.05;;;3.45;;
32780;SDS011;19136;47.032;15.502;2022-07-21T07:32:21;12.23;;;3.47;;
32780;SDS011;19136;47.032;15.502;2022-07-21T07:34:46;9.30;;;3.90;;
32780;SDS011;19136;47.032;15.502;2022-07-21T07:37:12;19.02;;;3.55;;
32780;SDS011;19136;47.032;15.502;2022-07-21T07:39:37;14.82;;;3.78;;
32780;SDS011;19136;47.032;15.502;2022-07-21T07:42:04;15.52;;;3.83;;
32780;SDS011;19136;47.032;15.502;2022-07-21T07:44:30;6.55;;;3.45;;
32780;SDS011;19136;47.032;15.502;2022-07-21T07:46:56;13.27;;;3.75;;
32780;SDS011;19136;47.032;15.502;2022-07-21T07:49:22;10.93;;;4.45;;
32780;SDS011;19136;47.032;15.502;2022-07-21T07:51:47;11.32;;;3.88;;
32780;SDS011;19136;47.032;15.502;2022-07-21T07:54:13;10.93;;;3.50;;
32780;SDS011;19136;47.032;15.502;2022-07-21T07:56:39;11.27;;;4.03;;
32780;SDS011;19136;47.032;15.502;2022-07-21T07:59:05;9.95;;;3.70;;
32780;SDS011;19136;47.032;15.502;2022-07-21T08:01:31;16.00;;;4.32;;
32780;SDS011;19136;47.032;15.502;2022-07-21T08:03:56;9.93;;;3.35;;
32780;SDS011;19136;47.032;15.502;2022-07-21T08:06:22;8.35;;;3.90;;
32780;SDS011;19136;47.032;15.502;2022-07-21T08:08:47;5.60;;;2.92;;
32780;SDS011;19136;47.032;15.502;2022-07-21T08:11:13;15.40;;;4.30;;
32780;SDS011;19136;47.032;15.502;2022-07-21T08:13:39;8.27;;;3.70;;
32780;SDS011;19136;47.032;15.502;2022-07-21T08:16:05;11.77;;;4.28;;
32780;SDS011;19136;47.032;15.502;2022-07-21T08:18:31;14.02;;;4.15;;
32780;SDS011;19136;47.032;15.502;2022-07-21T08:20:56;10.85;;;3.70;;
32780;SDS011;19136;47.032;15.502;2022-07-21T08:23:22;9.07;;;3.72;;
32780;SDS011;19136;47.032;15.502;2022-07-21T08:25:47;12.57;;;4.05;;
32780;SDS011;19136;47.032;15.502;2022-07-21T08:28:13;9.20;;;4.32;;
32780;SDS011;19136;47.032;15.502;2022-07-21T08:30:39;10.93;;;3.83;;
32780;SDS011;19136;47.032;15.502;2022-07-21T08:33:04;12.07;;;4.35;;
32780;SDS011;19136;47.032;15.502;2022-07-21T08:35:30;14.35;;;3.83;;
32780;SDS011;19136;47.032;15.502;2022-07-21T08:38:05;16.15;;;3.78;;
32780;SDS011;19136;47.032;15.502;2022-07-21T08:40:33;11.25;;;3.83;;
32780;SDS011;19136;47.032;15.502;2022-07-21T08:43:00;10.80;;;3.70;;
32780;SDS011;19136;47.032;15.502;2022-07-21T08:45:26;14.38;;;4.00;;
32780;SDS011;19136;47.032;15.502;2022-07-21T08:47:56;12.15;;;4.85;;
32780;SDS011;19136;47.032;15.502;2022-07-21T08:50:23;10.75;;;3.90;;
32780;SDS011;19136;47.032;15.502;2022-07-21T08:52:50;12.20;;;3.35;;
32780;SDS011;19136;47.032;15.502;2022-07-21T08:55:16;10.50;;;3.72;;
32780;SDS011;19136;47.032;15.502;2022-07-21T08:57:42;14.35;;;3.53;;
32780;SDS011;19136;47.032;15.502;2022-07-21T09:00:08;10.32;;;3.78;;
32780;SDS011;19136;47.032;15.502;2022-07-21T09:02:35;7.63;;;2.88;;
32780;SDS011;19136;47.032;15.502;2022-07-21T09:05:02;10.27;;;3.55;;
32780;SDS011;19136;47.032;15.502;2022-07-21T09:07:29;10.43;;;3.40;;
32780;SDS011;19136;47.032;15.502;2022-07-21T09:12:47;7.32;;;2.85;;
32780;SDS011;19136;47.032;15.502;2022-07-21T09:15:18;6.40;;;2.58;;
32780;SDS011;19136;47.032;15.502;2022-07-21T09:17:45;7.63;;;3.53;;
32780;SDS011;19136;47.032;15.502;2022-07-21T09:20:21;8.88;;;3.15;;
32780;SDS011;19136;47.032;15.502;2022-07-21T09:23:00;7.50;;;2.88;;
32780;SDS011;19136;47.032;15.502;2022-07-21T09:25:41;6.35;;;2.95;;
32780;SDS011;19136;47.032;15.502;2022-07-21T09:30:52;6.75;;;3.00;;
32780;SDS011;19136;47.032;15.502;2022-07-21T09:33:30;8.00;;;2.95;;
32780;SDS011;19136;47.032;15.502;2022-07-21T09:38:39;6.22;;;2.53;;
32780;SDS011;19136;47.032;15.502;2022-07-21T09:41:17;7.38;;;2.50;;
32780;SDS011;19136;47.032;15.502;2022-07-21T09:43:45;7.68;;;2.47;;
32780;SDS011;19136;47.032;15.502;2022-07-21T09:46:17;7.88;;;2.55;;
32780;SDS011;19136;47.032;15.502;2022-07-21T09:48:45;11.68;;;2.67;;
32780;SDS011;19136;47.032;15.502;2022-07-21T09:51:18;6.05;;;2.65;;
32780;SDS011;19136;47.032;15.502;2022-07-21T09:54:19;5.18;;;3.08;;
32780;SDS011;19136;47.032;15.502;2022-07-21T09:56:39;10.05;;;2.50;;
32780;SDS011;19136;47.032;15.502;2022-07-21T09:59:06;5.50;;;2.33;;
32780;SDS011;19136;47.032;15.502;2022-07-21T10:01:32;8.35;;;2.50;;
32780;SDS011;19136;47.032;15.502;2022-07-21T10:03:59;8.55;;;2.88;;
32780;SDS011;19136;47.032;15.502;2022-07-21T10:06:28;5.03;;;2.20;;
32780;SDS011;19136;47.032;15.502;2022-07-21T10:08:56;7.07;;;2.30;;
32780;SDS011;19136;47.032;15.502;2022-07-21T10:11:22;11.73;;;2.63;;
32780;SDS011;19136;47.032;15.502;2022-07-21T10:13:48;7.65;;;2.47;;
32780;SDS011;19136;47.032;15.502;2022-07-21T10:16:14;5.63;;;2.28;;
32780;SDS011;19136;47.032;15.502;2022-07-21T10:24:05;3.00;;;1.90;;
32780;SDS011;19136;47.032;15.502;2022-07-21T10:26:31;5.50;;;2.08;;
32780;SDS011;19136;47.032;15.502;2022-07-21T10:28:56;3.92;;;2.08;;
32780;SDS011;19136;47.032;15.502;2022-07-21T10:31:23;3.63;;;2.25;;
32780;SDS011;19136;47.032;15.502;2022-07-21T10:33:51;2.83;;;2.03;;
32780;SDS011;19136;47.032;15.502;2022-07-21T10:39:34;6.25;;;2.25;;
32780;SDS011;19136;47.032;15.502;2022-07-21T10:41:49;6.00;;;2.38;;
32780;SDS011;19136;47.032;15.502;2022-07-21T10:49:52;5.93;;;2.15;;
32780;SDS011;19136;47.032;15.502;2022-07-21T10:55:19;5.75;;;2.30;;
32780;SDS011;19136;47.032;15.502;2022-07-21T11:00:43;6.93;;;2.00;;
32780;SDS011;19136;47.032;15.502;2022-07-21T11:08:42;7.53;;;2.22;;
32780;SDS011;19136;47.032;15.502;2022-07-21T11:11:10;5.22;;;2.10;;
32780;SDS011;19136;47.032;15.502;2022-07-21T11:24:44;5.60;;;1.80;;
32780;SDS011;19136;47.032;15.502;2022-07-21T11:29:43;5.45;;;2.00;;
32780;SDS011;19136;47.032;15.502;2022-07-21T11:32:11;5.47;;;2.20;;
32780;SDS011;19136;47.032;15.502;2022-07-21T11:34:45;5.63;;;2.28;;
32780;SDS011;19136;47.032;15.502;2022-07-21T11:37:13;8.65;;;2.22;;
32780;SDS011;19136;47.032;15.502;2022-07-21T11:39:41;6.00;;;2.08;;
32780;SDS011;19136;47.032;15.502;2022-07-21T11:42:08;8.48;;;2.00;;
32780;SDS011;19136;47.032;15.502;2022-07-21T11:44:36;5.20;;;2.38;;
32780;SDS011;19136;47.032;15.502;2022-07-21T11:47:03;8.40;;;2.20;;
32780;SDS011;19136;47.032;15.502;2022-07-21T11:49:30;8.02;;;2.10;;
32780;SDS011;19136;47.032;15.502;2022-07-21T11:54:33;5.03;;;2.40;;
32780;SDS011;19136;47.032;15.502;2022-07-21T11:57:03;4.78;;;2.40;;
32780;SDS011;19136;47.032;15.502;2022-07-21T11:59:32;3.53;;;2.28;;
32780;SDS011;19136;47.032;15.502;2022-07-21T12:02:00;10.27;;;2.47;;
32780;SDS011;19136;47.032;15.502;2022-07-21T12:04:35;9.82;;;1.98;;
32780;SDS011;19136;47.032;15.502;2022-07-21T12:07:30;12.00;;;2.70;;
32780;SDS011;19136;47.032;15.502;2022-07-21T12:10:00;5.18;;;1.90;;
32780;SDS011;19136;47.032;15.502;2022-07-21T12:15:14;7.10;;;1.90;;
32780;SDS011;19136;47.032;15.502;2022-07-21T12:17:48;5.20;;;2.10;;
32780;SDS011;19136;47.032;15.502;2022-07-21T12:22:57;8.30;;;2.10;;
32780;SDS011;19136;47.032;15.502;2022-07-21T12:25:31;3.53;;;2.03;;
32780;SDS011;19136;47.032;15.502;2022-07-21T12:28:01;8.48;;;2.10;;
32780;SDS011;19136;47.032;15.502;2022-07-21T12:30:30;7.40;;;2.17;;
32780;SDS011;19136;47.032;15.502;2022-07-21T12:33:02;5.03;;;2.08;;
32780;SDS011;19136;47.032;15.502;2022-07-21T12:35:30;3.78;;;2.10;;
32780;SDS011;19136;47.032;15.502;2022-07-21T12:38:00;4.40;;;1.98;;
32780;SDS011;19136;47.032;15.502;2022-07-21T12:40:30;6.50;;;2.50;;
32780;SDS011;19136;47.032;15.502;2022-07-21T12:43:04;3.83;;;1.98;;
32780;SDS011;19136;47.032;15.502;2022-07-21T12:45:57;8.02;;;2.08;;
32780;SDS011;19136;47.032;15.502;2022-07-21T12:48:27;5.00;;;1.90;;
32780;SDS011;19136;47.032;15.502;2022-07-21T12:50:59;7.25;;;2.25;;
32780;SDS011;19136;47.032;15.502;2022-07-21T12:53:26;6.07;;;2.47;;
32780;SDS011;19136;47.032;15.502;2022-07-21T12:55:52;4.75;;;1.70;;
32780;SDS011;19136;47.032;15.502;2022-07-21T12:58:17;5.43;;;1.90;;
32780;SDS011;19136;47.032;15.502;2022-07-21T13:00:43;8.63;;;2.70;;
32780;SDS011;19136;47.032;15.502;2022-07-21T13:03:09;14.50;;;2.47;;
32780;SDS011;19136;47.032;15.502;2022-07-21T13:05:34;3.05;;;2.05;;
32780;SDS011;19136;47.032;15.502;2022-07-21T13:08:00;6.32;;;2.22;;
32780;SDS011;19136;47.032;15.502;2022-07-21T13:10:25;4.07;;;2.10;;
32780;SDS011;19136;47.032;15.502;2022-07-21T13:12:51;4.15;;;2.00;;
32780;SDS011;19136;47.032;15.502;2022-07-21T13:15:17;4.97;;;1.98;;
32780;SDS011;19136;47.032;15.502;2022-07-21T13:17:42;5.07;;;1.85;;
32780;SDS011;19136;47.032;15.502;2022-07-21T13:20:09;6.30;;;1.92;;
32780;SDS011;19136;47.032;15.502;2022-07-21T13:22:35;3.47;;;2.05;;
32780;SDS011;19136;47.032;15.502;2022-07-21T13:25:01;6.68;;;2.00;;
32780;SDS011;19136;47.032;15.502;2022-07-21T13:27:27;4.78;;;1.77;;
32780;SDS011;19136;47.032;15.502;2022-07-21T13:29:52;3.47;;;2.17;;
32780;SDS011;19136;47.032;15.502;2022-07-21T13:32:18;4.07;;;1.83;;
32780;SDS011;19136;47.032;15.502;2022-07-21T13:34:43;6.47;;;2.40;;
32780;SDS011;19136;47.032;15.502;2022-07-21T13:37:09;7.95;;;2.10;;
32780;SDS011;19136;47.032;15.502;2022-07-21T13:39:39;3.50;;;1.77;;
32780;SDS011;19136;47.032;15.502;2022-07-21T13:42:05;4.80;;;1.98;;
32780;SDS011;19136;47.032;15.502;2022-07-21T13:44:33;5.32;;;1.80;;
32780;SDS011;19136;47.032;15.502;2022-07-21T13:46:59;2.75;;;2.00;;
32780;SDS011;19136;47.032;15.502;2022-07-21T13:49:24;8.38;;;2.15;;
32780;SDS011;19136;47.032;15.502;2022-07-21T13:51:50;8.20;;;2.10;;
32780;SDS011;19136;47.032;15.502;2022-07-21T13:54:15;5.40;;;1.83;;
32780;SDS011;19136;47.032;15.502;2022-07-21T13:56:41;4.47;;;2.03;;
32780;SDS011;19136;47.032;15.502;2022-07-21T13:59:07;8.80;;;2.30;;
32780;SDS011;19136;47.032;15.502;2022-07-21T14:01:32;6.28;;;1.77;;
32780;SDS011;19136;47.032;15.502;2022-07-21T14:03:58;5.57;;;2.03;;
32780;SDS011;19136;47.032;15.502;2022-07-21T14:06:24;5.95;;;2.25;;
32780;SDS011;19136;47.032;15.502;2022-07-21T14:08:49;5.80;;;1.98;;
32780;SDS011;19136;47.032;15.502;2022-07-21T14:11:15;6.05;;;2.17;;
32780;SDS011;19136;47.032;15.502;2022-07-21T14:13:42;7.82;;;2.20;;
32780;SDS011;19136;47.032;15.502;2022-07-21T14:16:07;12.45;;;2.10;;
32780;SDS011;19136;47.032;15.502;2022-07-21T14:18:33;4.22;;;2.40;;
32780;SDS011;19136;47.032;15.502;2022-07-21T14:20:59;4.15;;;1.88;;
32780;SDS011;19136;47.032;15.502;2022-07-21T14:23:25;4.53;;;2.00;;
32780;SDS011;19136;47.032;15.502;2022-07-21T14:25:51;7.72;;;1.77;;
32780;SDS011;19136;47.032;15.502;2022-07-21T14:28:17;8.57;;;2.08;;
32780;SDS011;19136;47.032;15.502;2022-07-21T14:30:43;2.38;;;1.85;;
32780;SDS011;19136;47.032;15.502;2022-07-21T14:33:09;7.38;;;2.10;;
32780;SDS011;19136;47.032;15.502;2022-07-21T14:35:34;5.60;;;2.10;;
32780;SDS011;19136;47.032;15.502;2022-07-21T14:38:00;4.47;;;1.83;;
32780;SDS011;19136;47.032;15.502;2022-07-21T14:40:26;3.42;;;1.98;;
32780;SDS011;19136;47.032;15.502;2022-07-21T14:42:52;9.23;;;2.05;;
32780;SDS011;19136;47.032;15.502;2022-07-21T14:45:18;4.03;;;2.00;;
32780;SDS011;19136;47.032;15.502;2022-07-21T14:47:44;7.00;;;2.15;;
32780;SDS011;19136;47.032;15.502;2022-07-21T14:50:12;6.68;;;1.95;;
32780;SDS011;19136;47.032;15.502;2022-07-21T14:52:38;8.55;;;2.08;;
32780;SDS011;19136;47.032;15.502;2022-07-21T14:55:04;3.75;;;1.80;;
32780;SDS011;19136;47.032;15.502;2022-07-21T14:57:31;4.85;;;1.70;;
32780;SDS011;19136;47.032;15.502;2022-07-21T14:59:56;8.63;;;2.20;;
32780;SDS011;19136;47.032;15.502;2022-07-21T15:02:22;7.15;;;2.30;;
32780;SDS011;19136;47.032;15.502;2022-07-21T15:04:51;4.50;;;2.13;;
32780;SDS011;19136;47.032;15.502;2022-07-21T15:07:17;6.03;;;1.90;;
32780;SDS011;19136;47.032;15.502;2022-07-21T15:09:43;4.45;;;2.00;;
32780;SDS011;19136;47.032;15.502;2022-07-21T15:12:09;3.63;;;1.77;;
32780;SDS011;19136;47.032;15.502;2022-07-21T15:14:35;4.30;;;1.85;;
32780;SDS011;19136;47.032;15.502;2022-07-21T15:17:02;2.63;;;1.75;;
32780;SDS011;19136;47.032;15.502;2022-07-21T15:19:28;4.35;;;1.70;;
32780;SDS011;19136;47.032;15.502;2022-07-21T15:21:53;2.80;;;1.90;;
32780;SDS011;19136;47.032;15.502;2022-07-21T15:24:19;5.38;;;1.85;;
32780;SDS011;19136;47.032;15.502;2022-07-21T15:26:44;3.65;;;1.75;;